Time;durP1;ratioP1;P1;durP2;ratioP2;P2;SDS_P1;SDS_P2;PMS_P1;PMS_P2;Temp;Humidity;BMP_temperature;BMP_pressure;BME280_temperature;BME280_humidity;BME280_pressure;Samples;Min_cycle;Max_cycle;Signal;HPM_P1;HPM_P2
2021/08/19 00:01:23;;;;;;;;;3.00;3.00;;;;;21.92;56.30;101185.50;5065112;28;45289;-53
2021/08/19 00:03:48;;;;;;;;;2.33;2.33;;;;;21.91;56.32;101181.06;5064547;28;45650;-52
2021/08/19 00:06:14;;;;;;;;;2.00;2.00;;;;;21.90;56.18;101175.75;5064759;28;45559;-48
2021/08/19 00:08:41;;;;;;;;;3.00;2.00;;;;;21.89;55.89;101176.72;5063275;28;45481;-53
2021/08/19 00:11:08;;;;;;;;;2.33;2.33;;;;;21.87;56.40;101181.34;5064791;28;45652;-53
2021/08/19 00:13:33;;;;;;;;;2.00;2.00;;;;;21.85;56.38;101176.06;5064364;27;47290;-54
2021/08/19 00:15:59;;;;;;;;;2.00;2.00;;;;;21.84;56.33;101177.00;5061514;28;45401;-51
2021/08/19 00:18:25;;;;;;;;;2.00;2.00;;;;;21.84;56.57;101176.13;5058955;28;45309;-53
2021/08/19 00:20:50;;;;;;;;;4.00;4.00;;;;;21.84;56.59;101173.41;5067097;27;45258;-52
2021/08/19 00:23:16;;;;;;;;;3.00;3.00;;;;;21.84;56.07;101177.00;5060579;28;49135;-53
2021/08/19 00:25:41;;;;;;;;;1.33;1.33;;;;;21.83;56.46;101168.97;5062860;28;45285;-54
2021/08/19 00:28:07;;;;;;;;;1.00;1.00;;;;;21.82;56.55;101167.25;5061356;27;45285;-50
2021/08/19 00:30:33;;;;;;;;;1.67;1.67;;;;;21.80;56.27;101161.94;5059628;28;45287;-53
2021/08/19 00:32:59;;;;;;;;;5.00;4.00;;;;;21.79;56.25;101162.91;5054643;28;48183;-53
2021/08/19 00:35:24;;;;;;;;;3.00;3.00;;;;;21.76;56.41;101152.28;5060297;28;45824;-53
2021/08/19 00:37:50;;;;;;;;;3.00;3.00;;;;;21.74;56.31;101152.41;5058498;28;45752;-53
2021/08/19 00:40:15;;;;;;;;;3.00;3.00;;;;;21.73;56.46;101144.38;5057057;28;45591;-51
2021/08/19 00:42:42;;;;;;;;;2.00;2.00;;;;;21.71;56.27;101146.28;5060445;27;47146;-53
2021/08/19 00:45:08;;;;;;;;;2.00;2.00;;;;;21.72;56.68;101146.22;5075972;27;45420;-53
2021/08/19 00:47:38;;;;;;;;;1.67;1.67;;;;;21.74;56.46;101140.72;5058269;28;45469;-52
2021/08/19 00:50:04;;;;;;;;;3.00;3.00;;;;;21.74;56.33;101138.88;5061294;28;45447;-51
2021/08/19 00:52:31;;;;;;;;;2.00;2.00;;;;;21.74;56.77;101143.41;5060907;28;47864;-52
2021/08/19 00:54:57;;;;;;;;;3.67;3.67;;;;;21.76;56.15;101148.72;5059268;28;46072;-53
2021/08/19 00:57:22;;;;;;;;;3.00;3.00;;;;;21.74;56.32;101147.00;5059207;28;45421;-52
2021/08/19 00:59:52;;;;;;;;;2.33;2.33;;;;;21.73;56.58;101144.38;5060926;28;45804;-51
2021/08/19 01:02:19;;;;;;;;;2.00;2.00;;;;;21.70;56.59;101147.25;5059127;28;47274;-53
2021/08/19 01:04:45;;;;;;;;;2.33;2.33;;;;;21.68;56.42;101139.25;5082700;27;45715;-51
2021/08/19 01:07:10;;;;;;;;;2.00;2.00;;;;;21.69;56.67;101137.41;5054236;28;45336;-52
2021/08/19 01:09:36;;;;;;;;;2.00;2.00;;;;;21.67;56.20;101140.22;5051517;28;45475;-51
2021/08/19 01:12:04;;;;;;;;;2.67;2.67;;;;;21.66;56.36;101138.47;5057698;28;46924;-51
2021/08/19 01:14:30;;;;;;;;;2.00;2.00;;;;;21.67;56.68;101142.03;5053140;28;45972;-52
2021/08/19 01:16:56;;;;;;;;;1.67;1.67;;;;;21.65;55.94;101146.69;5055935;28;45738;-51
2021/08/19 01:19:23;;;;;;;;;2.33;2.33;;;;;21.62;56.08;101136.06;5060584;28;45561;-52
2021/08/19 01:21:49;;;;;;;;;1.00;1.00;;;;;21.60;56.27;101146.97;5059988;28;47427;-52
2021/08/19 01:24:15;;;;;;;;;2.00;2.00;;;;;21.59;55.89;101138.94;5059559;28;45856;-53
2021/08/19 01:26:41;;;;;;;;;2.67;2.67;;;;;21.58;55.93;101134.50;5055722;28;45462;-49
2021/08/19 01:29:07;;;;;;;;;2.00;2.00;;;;;21.57;56.24;101127.34;5059688;28;45385;-51
2021/08/19 01:31:34;;;;;;;;;2.00;2.00;;;;;21.56;55.94;101128.31;5058000;28;47368;-52
2021/08/19 01:34:00;;;;;;;;;2.33;2.33;;;;;21.56;55.70;101128.31;5060186;28;45303;-52
2021/08/19 01:36:26;;;;;;;;;2.00;2.00;;;;;21.55;56.29;101119.34;5060015;28;45292;-52
2021/08/19 01:38:53;;;;;;;;;4.00;3.00;;;;;21.56;56.05;101126.50;5091973;27;45552;-53
2021/08/19 01:41:19;;;;;;;;;3.00;3.00;;;;;21.55;55.96;101124.75;5055818;27;45476;-52
2021/08/19 01:43:51;;;;;;;;;3.33;2.00;;;;;21.53;56.03;101121.28;5049024;28;45572;-53
2021/08/19 01:46:20;;;;;;;;;2.00;2.00;;;;;21.53;55.90;101115.00;5059057;28;45657;-52
2021/08/19 01:48:49;;;;;;;;;4.00;3.00;;;;;21.52;55.72;101116.84;5056706;28;45665;-54
2021/08/19 01:51:22;;;;;;;;;3.00;3.00;;;;;21.52;55.96;101115.97;5058064;28;48443;-49
2021/08/19 01:53:50;;;;;;;;;2.00;2.00;;;;;21.53;56.31;101120.41;5059535;28;45895;-53
2021/08/19 01:56:18;;;;;;;;;1.67;1.67;;;;;21.52;56.02;101119.53;5092224;27;45356;-52
2021/08/19 01:58:43;;;;;;;;;1.33;1.33;;;;;21.55;56.18;101132.84;5058365;28;45775;-51
2021/08/19 02:01:08;;;;;;;;;2.00;2.00;;;;;21.52;55.88;101122.25;5056650;28;45729;-51
2021/08/19 02:03:34;;;;;;;;;4.33;2.67;;;;;21.51;55.92;101127.75;5054913;28;45394;-54
2021/08/19 02:06:00;;;;;;;;;3.67;3.33;;;;;21.51;55.63;101125.03;5057155;28;45671;-52
2021/08/19 02:08:25;;;;;;;;;2.67;2.00;;;;;21.51;56.00;101120.50;5059963;28;45531;-54
2021/08/19 02:10:51;;;;;;;;;3.00;2.00;;;;;21.51;56.18;101122.34;5058298;28;48263;-53
2021/08/19 02:13:16;;;;;;;;;2.00;2.00;;;;;21.49;55.89;101117.03;5071854;28;45526;-54
2021/08/19 02:15:42;;;;;;;;;4.00;3.00;;;;;21.47;56.16;101112.66;5052204;28;45452;-53
2021/08/19 02:18:08;;;;;;;;;2.67;2.67;;;;;21.45;56.18;101115.47;5057761;28;45507;-51
2021/08/19 02:20:34;;;;;;;;;4.67;4.67;;;;;21.44;55.83;101111.91;5059211;28;48152;-54
2021/08/19 02:23:04;;;;;;;;;3.33;3.33;;;;;21.44;55.71;101113.72;5059007;28;45438;-52
2021/08/19 02:25:30;;;;;;;;;3.00;3.00;;;;;21.42;55.79;101113.81;5058064;28;45414;-53
2021/08/19 02:27:56;;;;;;;;;3.00;2.00;;;;;21.41;56.13;101119.31;5059200;28;45421;-52
2021/08/19 02:30:22;;;;;;;;;2.33;2.33;;;;;21.38;55.91;101111.41;5058997;28;47470;-53
2021/08/19 02:32:55;;;;;;;;;2.00;2.00;;;;;21.34;56.05;101117.94;5048794;28;45487;-52
2021/08/19 02:35:21;;;;;;;;;2.00;2.00;;;;;21.30;55.90;101109.16;5045672;28;45411;-52
2021/08/19 02:37:47;;;;;;;;;2.67;2.67;;;;;21.31;56.33;101104.63;5091259;27;45523;-54
2021/08/19 02:40:13;;;;;;;;;3.00;3.00;;;;;21.33;56.36;101102.69;5052358;28;48301;-52
2021/08/19 02:42:38;;;;;;;;;2.33;2.33;;;;;21.34;55.92;101102.63;5058863;28;45780;-52
2021/08/19 02:45:04;;;;;;;;;4.33;4.00;;;;;21.33;55.95;101092.78;5055997;28;46219;-51
2021/08/19 02:47:30;;;;;;;;;3.67;3.67;;;;;21.33;55.88;101089.22;5058674;28;45452;-52
2021/08/19 02:49:56;;;;;;;;;2.00;2.00;;;;;21.33;55.80;101092.78;5055959;28;46252;-51
2021/08/19 02:52:23;;;;;;;;;2.67;2.67;;;;;21.35;55.90;101090.00;5057302;28;45935;-53
2021/08/19 02:54:49;;;;;;;;;2.33;2.33;;;;;21.35;56.18;101090.88;5091439;27;45361;-51
2021/08/19 02:57:15;;;;;;;;;2.00;2.00;;;;;21.36;56.08;101095.31;5057952;28;45663;-52
2021/08/19 02:59:40;;;;;;;;;4.67;3.67;;;;;21.35;56.05;101088.19;5058754;28;47789;-52
2021/08/19 03:02:05;;;;;;;;;3.67;3.00;;;;;21.34;55.53;101083.75;5057814;28;45774;-52
2021/08/19 03:04:31;;;;;;;;;2.00;2.00;;;;;21.34;56.09;101083.75;5058861;28;45275;-52
2021/08/19 03:06:56;;;;;;;;;3.00;3.00;;;;;21.33;56.20;101086.50;5058649;28;45564;-51
2021/08/19 03:09:22;;;;;;;;;4.00;2.33;;;;;21.32;55.53;101087.47;5045801;28;48204;-51
2021/08/19 03:11:47;;;;;;;;;2.00;2.00;;;;;21.30;55.95;101084.88;5058758;28;45603;-50
2021/08/19 03:14:13;;;;;;;;;2.67;2.67;;;;;21.29;56.10;101085.84;5057244;28;45492;-52
2021/08/19 03:16:38;;;;;;;;;2.33;2.33;;;;;21.27;55.47;101087.75;5051105;28;45323;-53
2021/08/19 03:19:04;;;;;;;;;3.00;3.00;;;;;21.26;55.92;101083.31;5058433;28;46104;-51
2021/08/19 03:21:29;;;;;;;;;5.67;4.00;;;;;21.26;55.97;101085.16;5074383;27;45571;-48
2021/08/19 03:23:55;;;;;;;;;3.00;3.00;;;;;21.26;55.40;101083.31;5058153;28;45749;-49
2021/08/19 03:26:20;;;;;;;;;3.00;3.00;;;;;21.26;55.21;101080.63;5056915;28;45461;-53
2021/08/19 03:28:46;;;;;;;;;3.00;3.00;;;;;21.26;55.82;101074.34;5057093;28;48138;-51
2021/08/19 03:31:12;;;;;;;;;3.00;3.00;;;;;21.24;55.82;101085.22;5058577;28;45355;-47
2021/08/19 03:33:37;;;;;;;;;4.00;4.00;;;;;21.22;55.42;101081.75;5058984;28;45381;-52
2021/08/19 03:36:05;;;;;;;;;3.00;3.00;;;;;21.20;55.94;101077.38;5059015;28;45494;-50
2021/08/19 03:38:31;;;;;;;;;3.00;3.00;;;;;21.19;55.48;101081.03;5058770;28;47114;-50
2021/08/19 03:40:56;;;;;;;;;2.33;2.33;;;;;21.19;56.02;101078.34;5058727;28;46266;-48
2021/08/19 03:43:22;;;;;;;;;4.67;3.00;;;;;21.18;55.57;101077.47;5050739;28;45449;-53
2021/08/19 03:45:48;;;;;;;;;4.00;3.00;;;;;21.17;56.23;101075.75;5057604;28;45361;-48
2021/08/19 03:48:15;;;;;;;;;2.67;2.00;;;;;21.19;55.99;101079.22;5057745;28;47190;-52
2021/08/19 03:50:40;;;;;;;;;4.00;2.00;;;;;21.20;56.01;101069.28;5058620;27;45650;-51
2021/08/19 03:53:06;;;;;;;;;2.00;2.00;;;;;21.19;56.11;101070.25;5061451;28;45398;-50
2021/08/19 03:55:31;;;;;;;;;3.00;3.00;;;;;21.19;55.91;101075.66;5062798;28;45507;-51
2021/08/19 03:57:57;;;;;;;;;3.00;2.00;;;;;21.19;55.44;101072.94;5062803;27;47054;-52
2021/08/19 04:00:23;;;;;;;;;2.00;2.00;;;;;21.17;55.70;101071.22;5062547;28;45333;-52
2021/08/19 04:02:48;;;;;;;;;3.00;3.00;;;;;21.17;55.50;101078.44;5062844;28;45611;-50
2021/08/19 04:05:14;;;;;;;;;3.00;3.00;;;;;21.16;56.09;101068.59;5062793;28;45390;-52
2021/08/19 04:07:40;;;;;;;;;3.33;3.00;;;;;21.17;55.71;101067.66;5061285;28;47977;-52
2021/08/19 04:10:06;;;;;;;;;3.00;3.00;;;;;21.17;55.41;101065.81;5060514;28;45433;-52
2021/08/19 04:12:33;;;;;;;;;3.00;3.00;;;;;21.15;55.66;101069.56;5062490;28;45442;-52
2021/08/19 04:14:58;;;;;;;;;3.00;3.00;;;;;21.14;55.98;101070.53;5068042;28;45465;-52
2021/08/19 04:17:24;;;;;;;;;3.00;3.00;;;;;21.13;56.12;101069.66;5057089;28;47311;-51
2021/08/19 04:19:49;;;;;;;;;3.00;2.00;;;;;21.13;55.89;101068.81;5059520;28;45679;-52
2021/08/19 04:22:15;;;;;;;;;5.33;4.00;;;;;21.12;55.58;101069.75;5093959;27;45265;-52
2021/08/19 04:24:40;;;;;;;;;3.67;3.67;;;;;21.10;56.10;101069.00;5060813;28;45569;-49
2021/08/19 04:27:06;;;;;;;;;3.00;3.00;;;;;21.09;55.46;101064.56;5058998;28;46011;-48
2021/08/19 04:29:33;;;;;;;;;4.00;4.00;;;;;21.09;55.78;101062.72;5060408;28;45655;-52
2021/08/19 04:32:00;;;;;;;;;5.00;3.33;;;;;21.09;55.72;101061.84;5061351;28;45365;-51
2021/08/19 04:34:27;;;;;;;;;3.67;3.67;;;;;21.10;56.06;101063.59;5059072;28;45365;-47
2021/08/19 04:36:52;;;;;;;;;4.00;4.00;;;;;21.10;55.71;101058.19;5059504;28;47500;-51
2021/08/19 04:39:18;;;;;;;;;3.00;3.00;;;;;21.10;55.54;101064.47;5057592;28;45584;-51
2021/08/19 04:41:43;;;;;;;;;4.00;3.00;;;;;21.11;55.92;101057.22;5054348;28;45465;-52
2021/08/19 04:44:09;;;;;;;;;2.00;2.00;;;;;21.10;55.93;101061.75;5059795;28;45709;-51
2021/08/19 04:46:34;;;;;;;;;3.00;3.00;;;;;21.10;56.15;101064.47;5059061;28;48075;-53
2021/08/19 04:49:05;;;;;;;;;5.00;3.00;;;;;21.09;55.90;101059.16;5060479;28;46209;-52
2021/08/19 04:51:34;;;;;;;;;3.67;3.33;;;;;21.09;56.03;101067.25;5060261;28;45310;-52
2021/08/19 04:54:01;;;;;;;;;4.67;4.00;;;;;21.09;55.58;101068.13;5068925;28;45647;-53
2021/08/19 04:56:29;;;;;;;;;4.33;4.33;;;;;21.08;56.15;101071.75;5074454;27;47459;-51
2021/08/19 04:58:55;;;;;;;;;4.00;4.00;;;;;21.08;56.13;101079.84;5060522;28;46176;-51
2021/08/19 05:01:20;;;;;;;;;4.67;3.00;;;;;21.07;56.22;101075.41;5050555;27;45503;-49
2021/08/19 05:03:45;;;;;;;;;4.00;4.00;;;;;21.07;55.58;101079.94;5055455;28;45662;-50
2021/08/19 05:06:11;;;;;;;;;3.00;3.00;;;;;21.07;55.99;101083.50;5057434;28;48614;-51
2021/08/19 05:08:36;;;;;;;;;3.00;3.00;;;;;21.07;56.29;101083.50;5057554;28;45766;-51
2021/08/19 05:11:02;;;;;;;;;5.00;5.00;;;;;21.08;55.67;101089.78;5059858;28;45416;-50
2021/08/19 05:13:29;;;;;;;;;4.33;4.33;;;;;21.06;56.33;101083.59;5058866;28;45506;-51
2021/08/19 05:15:55;;;;;;;;;3.00;3.00;;;;;21.06;55.98;101087.16;5058314;28;47351;-51
2021/08/19 05:18:21;;;;;;;;;3.33;3.33;;;;;21.08;56.03;101084.38;5058094;28;46431;-49
2021/08/19 05:20:46;;;;;;;;;3.00;3.00;;;;;21.07;55.90;101090.75;5059326;28;45405;-51
2021/08/19 05:23:11;;;;;;;;;5.67;5.67;;;;;21.06;56.13;101092.56;5059654;28;45350;-50
2021/08/19 05:25:37;;;;;;;;;4.33;3.33;;;;;21.06;55.64;101089.00;5059422;27;46915;-51
2021/08/19 05:28:03;;;;;;;;;4.67;4.67;;;;;21.05;55.80;101088.13;5058334;28;45819;-52
2021/08/19 05:30:28;;;;;;;;;5.00;5.00;;;;;21.04;56.35;101086.41;5059914;27;45476;-51
2021/08/19 05:32:54;;;;;;;;;3.33;3.33;;;;;21.02;56.13;101088.31;5059941;27;45532;-52
2021/08/19 05:35:19;;;;;;;;;3.67;3.67;;;;;21.05;56.07;101092.66;5055489;28;47216;-48
2021/08/19 05:37:45;;;;;;;;;6.00;5.00;;;;;21.06;55.88;101097.09;5059992;27;45595;-51
2021/08/19 05:40:11;;;;;;;;;4.00;4.00;;;;;21.07;55.79;101096.13;5075836;27;45780;-48
2021/08/19 05:42:37;;;;;;;;;6.33;4.00;;;;;21.06;56.01;101095.25;5060106;28;45356;-52
2021/08/19 05:45:02;;;;;;;;;4.00;4.00;;;;;21.05;55.73;101103.47;5056935;28;48163;-51
2021/08/19 05:47:28;;;;;;;;;3.67;3.67;;;;;21.05;55.59;101089.97;5058605;28;45287;-50
2021/08/19 05:49:53;;;;;;;;;3.00;3.00;;;;;21.05;55.66;101096.22;5058386;28;45369;-50
2021/08/19 05:52:19;;;;;;;;;2.67;2.67;;;;;21.04;55.84;101093.63;5050585;28;45346;-53
2021/08/19 05:54:44;;;;;;;;;8.00;5.00;;;;;21.05;55.66;101103.47;5059017;28;48342;-50
2021/08/19 05:57:12;;;;;;;;;5.00;5.00;;;;;21.06;55.52;101094.41;5059441;28;45767;-48
2021/08/19 05:59:38;;;;;;;;;4.00;4.00;;;;;21.06;56.02;101099.78;5059414;28;45416;-48
2021/08/19 06:02:03;;;;;;;;;4.00;4.00;;;;;21.06;55.43;101097.09;5066268;27;45349;-52
2021/08/19 06:04:29;;;;;;;;;3.00;3.00;;;;;21.04;55.45;101097.19;5058256;28;45635;-49
2021/08/19 06:06:54;;;;;;;;;4.67;4.67;;;;;21.04;55.42;101097.19;5058007;28;45498;-51
2021/08/19 06:09:20;;;;;;;;;3.00;2.00;;;;;21.03;55.68;101103.56;5056172;28;45406;-50
2021/08/19 06:11:45;;;;;;;;;4.00;3.67;;;;;21.04;55.83;101094.50;5059627;27;45485;-53
2021/08/19 06:14:11;;;;;;;;;5.00;4.00;;;;;21.05;55.44;101100.75;5059148;28;47104;-53
2021/08/19 06:16:36;;;;;;;;;6.33;6.33;;;;;21.04;55.94;101094.50;5060070;28;45827;-51
2021/08/19 06:19:03;;;;;;;;;5.33;5.33;;;;;21.05;55.53;101093.53;5059700;28;45459;-48
2021/08/19 06:21:28;;;;;;;;;6.33;5.00;;;;;21.07;55.71;101090.75;5059889;28;45621;-52
2021/08/19 06:23:54;;;;;;;;;4.00;4.00;;;;;21.08;55.33;101090.66;5055636;28;47084;-49
2021/08/19 06:26:19;;;;;;;;;2.00;2.00;;;;;21.12;55.97;101088.66;5051687;28;45833;-51
2021/08/19 06:28:45;;;;;;;;;5.33;5.33;;;;;21.12;55.26;101096.75;5059341;28;45343;-50
2021/08/19 06:31:10;;;;;;;;;5.67;5.67;;;;;21.13;55.81;101095.78;5073308;27;45644;-48
2021/08/19 06:33:36;;;;;;;;;7.00;5.33;;;;;21.14;55.37;101094.81;5059283;28;45403;-53
2021/08/19 06:36:02;;;;;;;;;5.00;5.00;;;;;21.12;55.21;101088.66;5051955;28;46257;-53
2021/08/19 06:38:27;;;;;;;;;5.67;4.00;;;;;21.13;55.12;101093.97;5058360;28;45461;-48
2021/08/19 06:40:53;;;;;;;;;4.33;4.33;;;;;21.14;55.61;101095.69;5057627;28;45321;-54
2021/08/19 06:43:18;;;;;;;;;7.00;5.33;;;;;21.16;55.17;101093.75;5052513;28;48197;-53
2021/08/19 06:45:44;;;;;;;;;4.33;4.33;;;;;21.21;55.69;101095.31;5088275;27;45595;-52
2021/08/19 06:48:09;;;;;;;;;7.00;7.00;;;;;21.23;55.08;101088.88;5050468;28;45315;-52
2021/08/19 06:50:35;;;;;;;;;3.33;3.33;;;;;21.26;55.01;101082.47;5058722;28;45524;-54
2021/08/19 06:53:00;;;;;;;;;6.33;5.00;;;;;21.29;55.46;101093.94;5058197;28;47992;-53
2021/08/19 06:55:27;;;;;;;;;4.00;4.00;;;;;21.32;55.27;101091.03;5058559;28;45736;-50
2021/08/19 06:57:53;;;;;;;;;4.33;4.00;;;;;21.34;55.05;101090.94;5064029;27;45550;-52
2021/08/19 07:00:18;;;;;;;;;6.67;6.00;;;;;21.36;55.20;101094.44;5085724;27;45541;-51
2021/08/19 07:02:44;;;;;;;;;6.67;6.33;;;;;21.37;55.34;101094.34;5053324;28;47126;-52
2021/08/19 07:05:10;;;;;;;;;6.33;6.33;;;;;21.36;55.20;101092.63;5053509;28;45904;-51
2021/08/19 07:07:35;;;;;;;;;7.00;7.00;;;;;21.40;54.83;101096.00;5058756;28;45513;-53
2021/08/19 07:10:03;;;;;;;;;7.00;7.00;;;;;21.40;54.87;101099.56;5058517;28;45591;-50
2021/08/19 07:12:28;;;;;;;;;4.67;4.00;;;;;21.41;55.42;101104.00;5055540;28;48456;-52
2021/08/19 07:14:54;;;;;;;;;5.00;5.00;;;;;21.43;54.90;101099.34;5049061;28;45411;-49
2021/08/19 07:17:19;;;;;;;;;7.67;6.00;;;;;21.45;54.97;101104.66;5056522;28;45337;-53
2021/08/19 07:19:45;;;;;;;;;4.00;4.00;;;;;21.45;54.71;101097.44;5058757;28;45759;-50
2021/08/19 07:22:11;;;;;;;;;9.00;7.00;;;;;21.46;54.84;101098.28;5056738;28;46383;-60
2021/08/19 07:24:36;;;;;;;;;6.33;5.00;;;;;21.48;54.64;101095.53;5056829;28;45497;-51
2021/08/19 07:27:02;;;;;;;;;5.00;5.00;;;;;21.48;54.75;101091.00;5059179;28;45376;-53
2021/08/19 07:29:28;;;;;;;;;5.00;5.00;;;;;21.51;54.68;101095.34;5094044;27;45412;-50
2021/08/19 07:31:53;;;;;;;;;5.33;5.00;;;;;21.53;54.15;101096.09;5057990;28;48334;-52
2021/08/19 07:34:19;;;;;;;;;5.00;5.00;;;;;21.58;54.28;101092.16;5061931;28;45413;-51
2021/08/19 07:36:44;;;;;;;;;5.00;5.00;;;;;21.64;54.20;101088.22;5061125;28;45723;-51
2021/08/19 07:39:10;;;;;;;;;5.33;5.33;;;;;21.70;54.12;101087.81;5059575;28;45519;-49
2021/08/19 07:41:35;;;;;;;;;4.00;4.00;;;;;21.72;54.04;101091.28;5057632;28;47749;-51
2021/08/19 07:44:02;;;;;;;;;6.33;5.33;;;;;21.74;53.83;101082.16;5085019;27;45709;-51
2021/08/19 07:46:27;;;;;;;;;6.00;6.00;;;;;21.79;54.12;101083.69;5059198;28;45478;-51
2021/08/19 07:48:56;;;;;;;;;5.33;5.33;;;;;21.80;54.01;101089.00;5056204;28;45268;-50
2021/08/19 07:51:23;;;;;;;;;6.33;6.00;;;;;21.85;53.43;101086.00;5060730;28;48438;-48
2021/08/19 07:53:49;;;;;;;;;5.00;5.00;;;;;21.88;53.61;101089.41;5061334;27;45451;-52
2021/08/19 07:56:15;;;;;;;;;4.00;4.00;;;;;21.89;54.02;101085.72;5061394;28;45460;-52
2021/08/19 07:58:40;;;;;;;;;4.00;4.00;;;;;21.92;53.29;101084.66;5059579;28;45696;-53
2021/08/19 08:01:06;;;;;;;;;7.00;7.00;;;;;21.94;53.50;101091.69;5059840;28;48209;-53
2021/08/19 08:03:32;;;;;;;;;5.67;4.33;;;;;21.96;53.18;101087.06;5060723;28;45323;-51
2021/08/19 08:05:58;;;;;;;;;5.00;5.00;;;;;21.97;53.51;101086.09;5048835;28;45268;-49
2021/08/19 08:08:23;;;;;;;;;6.67;6.67;;;;;21.98;53.14;101092.38;5060962;28;45447;-50
2021/08/19 08:10:49;;;;;;;;;4.00;4.00;;;;;21.98;53.69;101092.38;5061236;28;47045;-52
2021/08/19 08:13:15;;;;;;;;;6.00;6.00;;;;;21.96;53.61;101097.88;5058691;28;45307;-52
2021/08/19 08:15:41;;;;;;;;;6.33;6.33;;;;;21.98;53.45;101092.38;5061258;28;45546;-50
2021/08/19 08:18:13;;;;;;;;;7.00;6.00;;;;;21.98;53.68;101095.09;5058575;28;45907;-52
2021/08/19 08:20:39;;;;;;;;;8.67;7.67;;;;;21.99;53.52;101086.88;5060645;28;47492;-53
2021/08/19 08:23:05;;;;;;;;;7.00;5.00;;;;;21.99;53.51;101092.28;5059409;28;45370;-49
2021/08/19 08:25:30;;;;;;;;;6.00;6.00;;;;;21.99;53.58;101102.22;5056051;28;45705;-52
2021/08/19 08:28:04;;;;;;;;;7.00;5.33;;;;;21.97;53.53;101106.84;5060226;28;45437;-51
2021/08/19 08:30:31;;;;;;;;;7.67;7.67;;;;;21.95;53.08;101103.38;5060114;28;47480;-56
2021/08/19 08:32:56;;;;;;;;;9.33;7.67;;;;;21.93;53.77;101102.59;5055481;28;45483;-52
2021/08/19 08:35:22;;;;;;;;;9.00;7.33;;;;;21.95;53.05;101108.78;5069392;28;45691;-52
2021/08/19 08:37:48;;;;;;;;;5.00;5.00;;;;;21.94;53.06;101107.91;5060420;28;45520;-51
2021/08/19 08:40:16;;;;;;;;;8.00;6.67;;;;;21.90;53.12;101110.91;5058296;28;45892;-52
2021/08/19 08:42:44;;;;;;;;;6.67;6.33;;;;;21.88;53.14;101108.31;5067509;28;45423;-49
2021/08/19 08:45:10;;;;;;;;;10.00;10.00;;;;;21.87;53.27;101114.69;5060481;27;45466;-53
2021/08/19 08:47:37;;;;;;;;;7.00;7.00;;;;;21.88;53.79;101116.41;5059217;28;45522;-50
2021/08/19 08:50:05;;;;;;;;;8.00;8.00;;;;;21.89;53.52;101110.03;5059689;27;47849;-51
2021/08/19 08:52:33;;;;;;;;;7.00;7.00;;;;;21.90;53.39;101106.38;5058717;28;45725;-52
2021/08/19 08:54:58;;;;;;;;;6.00;5.67;;;;;21.92;53.10;101111.69;5060283;28;45340;-53
2021/08/19 08:57:24;;;;;;;;;7.67;7.67;;;;;21.94;53.40;101120.53;5087368;27;45530;-53
2021/08/19 08:59:50;;;;;;;;;7.00;6.00;;;;;21.95;53.23;101114.19;5060274;28;48677;-51
2021/08/19 09:02:15;;;;;;;;;8.00;6.00;;;;;21.96;53.17;101121.31;5056333;28;45437;-54
2021/08/19 09:04:41;;;;;;;;;7.00;7.00;;;;;21.94;53.35;101121.41;5059803;28;45512;-54
2021/08/19 09:07:06;;;;;;;;;5.00;5.00;;;;;21.94;53.65;101123.25;5049834;28;45434;-50
2021/08/19 09:09:34;;;;;;;;;5.00;5.00;;;;;21.92;53.30;101117.09;5052201;28;47697;-51
2021/08/19 09:12:07;;;;;;;;;7.00;5.00;;;;;21.91;53.17;101127.03;5059461;28;45336;-52
2021/08/19 09:14:36;;;;;;;;;6.67;5.67;;;;;21.92;53.27;101126.06;5049283;28;45419;-52
2021/08/19 09:17:03;;;;;;;;;5.67;5.67;;;;;21.92;53.08;101125.19;5055564;28;45511;-51
2021/08/19 09:19:35;;;;;;;;;6.00;6.00;;;;;21.92;53.08;101125.19;5058426;28;47352;-53
2021/08/19 09:22:03;;;;;;;;;6.00;6.00;;;;;21.91;52.78;101124.31;5049567;28;45831;-52
2021/08/19 09:24:33;;;;;;;;;5.00;4.00;;;;;21.92;53.11;101120.66;5059052;28;45568;-52
2021/08/19 09:27:14;;;;;;;;;6.67;5.00;;;;;21.92;53.13;101128.75;5058548;28;45663;-53
2021/08/19 09:29:40;;;;;;;;;7.00;7.00;;;;;21.93;52.83;101124.22;5072400;27;46763;-53
2021/08/19 09:32:15;;;;;;;;;3.00;3.00;;;;;21.94;52.95;101125.94;5058335;28;45715;-51
2021/08/19 09:34:42;;;;;;;;;4.33;4.33;;;;;21.96;52.93;101126.72;5056368;28;45555;-53
2021/08/19 09:37:19;;;;;;;;;6.33;6.00;;;;;21.98;52.70;101125.69;5059710;28;45367;-52
2021/08/19 09:39:58;;;;;;;;;5.00;5.00;;;;;22.00;53.00;101126.44;5051596;28;47025;-50
2021/08/19 09:42:38;;;;;;;;;5.00;5.00;;;;;22.05;52.50;101126.16;5055297;28;45419;-55
2021/08/19 09:45:21;;;;;;;;;5.67;5.67;;;;;22.10;52.58;101120.47;5059464;28;45425;-54
2021/08/19 09:47:47;;;;;;;;;5.00;5.00;;;;;22.09;52.70;101116.03;5056009;28;45401;-53
2021/08/19 09:50:23;;;;;;;;;6.00;5.00;;;;;22.08;52.51;101114.31;5054791;28;47335;-54
2021/08/19 09:52:51;;;;;;;;;5.00;5.00;;;;;22.06;52.05;101121.66;5050365;28;45616;-53
2021/08/19 09:55:27;;;;;;;;;5.67;4.67;;;;;22.04;52.79;101119.00;5060466;28;45560;-54
2021/08/19 09:58:00;;;;;;;;;8.00;6.00;;;;;22.04;52.60;101124.41;5055089;28;45594;-51
2021/08/19 10:00:27;;;;;;;;;4.00;3.33;;;;;22.02;52.67;101115.53;5063008;28;45430;-54
2021/08/19 10:02:54;;;;;;;;;5.67;5.67;;;;;22.02;52.29;101110.13;5055711;28;45484;-54
2021/08/19 10:05:19;;;;;;;;;5.00;5.00;;;;;22.01;52.70;101106.56;5059723;28;45920;-53
2021/08/19 10:07:45;;;;;;;;;4.67;4.67;;;;;21.99;52.13;101113.91;5047775;28;45404;-50
2021/08/19 10:10:10;;;;;;;;;9.00;9.00;;;;;21.97;52.22;101106.84;5056587;28;45369;-51
2021/08/19 10:12:42;;;;;;;;;5.67;5.67;;;;;21.96;52.72;101116.78;5057224;28;45440;-53
2021/08/19 10:15:09;;;;;;;;;7.50;7.00;;;;;21.96;52.44;101113.22;5067396;27;45456;-53
2021/08/19 10:17:36;;;;;;;;;4.33;4.33;;;;;21.95;52.45;101115.03;5062208;28;45433;-53
2021/08/19 10:20:11;;;;;;;;;6.00;6.00;;;;;21.94;52.82;101117.84;5055336;28;47384;-54
2021/08/19 10:22:38;;;;;;;;;8.33;8.33;;;;;21.92;52.78;101112.53;5052073;28;45698;-53
2021/08/19 10:25:05;;;;;;;;;7.00;5.00;;;;;21.93;52.80;101113.41;5054546;28;45385;-52
2021/08/19 10:27:32;;;;;;;;;5.00;5.00;;;;;21.95;53.09;101112.34;5084974;27;45533;-50
2021/08/19 10:30:06;;;;;;;;;5.67;5.67;;;;;21.98;52.91;101112.19;5049645;28;47879;-51
2021/08/19 10:32:36;;;;;;;;;4.00;4.00;;;;;22.02;53.44;101112.84;5057573;28;45321;-52
2021/08/19 10:35:10;;;;;;;;;3.67;3.67;;;;;22.05;52.84;101115.34;5056900;28;45480;-51
2021/08/19 10:37:47;;;;;;;;;3.00;3.00;;;;;22.06;52.76;101105.44;5055188;28;45228;-52
2021/08/19 10:40:21;;;;;;;;;3.67;3.00;;;;;22.07;52.49;101105.31;5048359;28;45576;-51
2021/08/19 10:42:53;;;;;;;;;3.00;3.00;;;;;22.04;52.24;101103.66;5088425;27;45620;-53
2021/08/19 10:45:27;;;;;;;;;3.33;3.33;;;;;22.02;52.62;101105.59;5053980;28;45400;-51
2021/08/19 10:47:54;;;;;;;;;3.00;3.00;;;;;21.99;52.77;101104.94;5057816;28;45314;-52
2021/08/19 10:50:26;;;;;;;;;3.00;3.00;;;;;21.99;52.61;101113.91;5067210;28;47297;-52
2021/08/19 10:52:52;;;;;;;;;3.00;3.00;;;;;22.02;52.36;101112.84;5061743;27;45379;-52
2021/08/19 10:55:19;;;;;;;;;3.00;3.00;;;;;22.03;52.60;101114.56;5056131;28;45453;-54
2021/08/19 10:58:21;;;;;;;;;3.67;3.00;;;;;22.06;52.46;101105.44;5058059;28;45298;-52
2021/08/19 11:00:46;;;;;;;;;4.00;4.00;;;;;22.08;52.34;101111.59;5045957;28;47641;-52
2021/08/19 11:03:39;;;;;;;;;6.00;4.00;;;;;22.12;52.73;101110.47;5049167;28;45687;-53
2021/08/19 11:06:19;;;;;;;;;6.00;5.33;;;;;22.14;52.41;101112.09;5058183;28;45464;-52
2021/08/19 11:08:48;;;;;;;;;3.33;3.33;;;;;22.21;52.59;101105.31;5052854;28;45748;-50
2021/08/19 11:11:34;;;;;;;;;2.00;2.00;;;;;22.29;52.62;101105.69;5050753;28;48403;-53
2021/08/19 11:14:16;;;;;;;;;4.00;4.00;;;;;22.36;51.90;101108.91;5053275;28;45363;-52
2021/08/19 11:16:43;;;;;;;;;2.00;2.00;;;;;22.37;51.86;101109.75;5054972;28;45360;-53
2021/08/19 11:19:22;;;;;;;;;3.67;3.33;;;;;22.33;51.77;101111.78;5054393;28;45389;-51
2021/08/19 11:21:50;;;;;;;;;4.00;4.00;;;;;22.31;52.21;101101.06;5057970;28;47155;-53
2021/08/19 11:24:16;;;;;;;;;3.00;3.00;;;;;22.32;51.80;101105.50;5090121;27;46342;-54